sensor_id;sensor_type;location;lat;lon;timestamp;P1;durP1;ratioP1;P2;durP2;ratioP2
8536;SDS011;4306;50.210;10.628;2022-09-02T00:02:14;2.03;;;1.23;;
8536;SDS011;4306;50.210;10.628;2022-09-02T00:04:42;2.72;;;1.27;;
8536;SDS011;4306;50.210;10.628;2022-09-02T00:07:10;3.47;;;1.42;;
8536;SDS011;4306;50.210;10.628;2022-09-02T00:09:37;2.15;;;1.25;;
8536;SDS011;4306;50.210;10.628;2022-09-02T00:12:05;3.90;;;1.35;;
8536;SDS011;4306;50.210;10.628;2022-09-02T00:14:35;2.00;;;1.17;;
8536;SDS011;4306;50.210;10.628;2022-09-02T00:17:03;4.47;;;1.27;;
8536;SDS011;4306;50.210;10.628;2022-09-02T00:19:30;2.05;;;1.15;;
8536;SDS011;4306;50.210;10.628;2022-09-02T00:21:58;3.08;;;1.73;;
8536;SDS011;4306;50.210;10.628;2022-09-02T00:24:28;2.72;;;1.30;;
8536;SDS011;4306;50.210;10.628;2022-09-02T00:26:55;2.75;;;1.52;;
8536;SDS011;4306;50.210;10.628;2022-09-02T00:29:23;2.47;;;1.40;;
8536;SDS011;4306;50.210;10.628;2022-09-02T00:31:50;1.75;;;1.20;;
8536;SDS011;4306;50.210;10.628;2022-09-02T00:34:17;3.67;;;1.45;;
8536;SDS011;4306;50.210;10.628;2022-09-02T00:36:45;2.78;;;1.20;;
8536;SDS011;4306;50.210;10.628;2022-09-02T00:39:12;2.20;;;1.10;;
8536;SDS011;4306;50.210;10.628;2022-09-02T00:41:40;2.30;;;1.23;;
8536;SDS011;4306;50.210;10.628;2022-09-02T00:44:09;4.22;;;1.30;;
8536;SDS011;4306;50.210;10.628;2022-09-02T00:46:37;2.88;;;1.20;;
8536;SDS011;4306;50.210;10.628;2022-09-02T00:49:06;4.90;;;1.50;;
8536;SDS011;4306;50.210;10.628;2022-09-02T00:51:38;3.00;;;1.38;;
8536;SDS011;4306;50.210;10.628;2022-09-02T00:54:09;3.53;;;1.95;;
8536;SDS011;4306;50.210;10.628;2022-09-02T00:56:38;2.60;;;1.20;;
8536;SDS011;4306;50.210;10.628;2022-09-02T00:59:09;3.15;;;1.42;;
8536;SDS011;4306;50.210;10.628;2022-09-02T01:01:40;3.60;;;1.40;;
8536;SDS011;4306;50.210;10.628;2022-09-02T01:04:07;3.33;;;1.30;;
8536;SDS011;4306;50.210;10.628;2022-09-02T01:06:34;3.60;;;1.50;;
8536;SDS011;4306;50.210;10.628;2022-09-02T01:09:02;3.78;;;1.40;;
8536;SDS011;4306;50.210;10.628;2022-09-02T01:11:35;2.17;;;1.40;;
8536;SDS011;4306;50.210;10.628;2022-09-02T01:14:06;2.55;;;1.23;;
8536;SDS011;4306;50.210;10.628;2022-09-02T01:16:36;2.75;;;1.20;;
8536;SDS011;4306;50.210;10.628;2022-09-02T01:19:08;2.95;;;1.40;;
8536;SDS011;4306;50.210;10.628;2022-09-02T01:21:46;1.92;;;1.23;;
8536;SDS011;4306;50.210;10.628;2022-09-02T01:24:14;2.28;;;1.30;;
8536;SDS011;4306;50.210;10.628;2022-09-02T01:26:42;4.60;;;1.85;;
8536;SDS011;4306;50.210;10.628;2022-09-02T01:29:09;3.17;;;1.40;;
8536;SDS011;4306;50.210;10.628;2022-09-02T01:31:36;5.50;;;1.60;;
8536;SDS011;4306;50.210;10.628;2022-09-02T01:34:03;1.88;;;1.15;;
8536;SDS011;4306;50.210;10.628;2022-09-02T01:36:31;2.35;;;1.30;;
8536;SDS011;4306;50.210;10.628;2022-09-02T01:39:00;3.30;;;1.25;;
8536;SDS011;4306;50.210;10.628;2022-09-02T01:41:26;2.22;;;1.30;;
8536;SDS011;4306;50.210;10.628;2022-09-02T01:43:53;4.70;;;1.67;;
8536;SDS011;4306;50.210;10.628;2022-09-02T01:46:21;3.88;;;1.40;;
8536;SDS011;4306;50.210;10.628;2022-09-02T01:48:48;5.03;;;1.40;;
8536;SDS011;4306;50.210;10.628;2022-09-02T01:51:16;3.30;;;1.33;;
8536;SDS011;4306;50.210;10.628;2022-09-02T01:53:45;2.80;;;1.45;;
8536;SDS011;4306;50.210;10.628;2022-09-02T01:56:14;3.35;;;1.40;;
8536;SDS011;4306;50.210;10.628;2022-09-02T01:58:42;3.65;;;1.50;;
8536;SDS011;4306;50.210;10.628;2022-09-02T02:01:09;2.47;;;1.27;;
8536;SDS011;4306;50.210;10.628;2022-09-02T02:03:37;3.65;;;1.60;;
8536;SDS011;4306;50.210;10.628;2022-09-02T02:06:06;2.95;;;1.33;;
8536;SDS011;4306;50.210;10.628;2022-09-02T02:08:35;5.28;;;1.63;;
8536;SDS011;4306;50.210;10.628;2022-09-02T02:11:02;4.18;;;1.52;;
8536;SDS011;4306;50.210;10.628;2022-09-02T02:13:31;3.97;;;1.80;;
8536;SDS011;4306;50.210;10.628;2022-09-02T02:15:58;3.63;;;1.27;;
8536;SDS011;4306;50.210;10.628;2022-09-02T02:18:25;3.05;;;1.45;;
8536;SDS011;4306;50.210;10.628;2022-09-02T02:20:52;4.10;;;1.52;;
8536;SDS011;4306;50.210;10.628;2022-09-02T02:23:19;2.30;;;1.33;;
8536;SDS011;4306;50.210;10.628;2022-09-02T02:25:48;2.65;;;1.20;;
8536;SDS011;4306;50.210;10.628;2022-09-02T02:28:15;1.90;;;1.33;;
8536;SDS011;4306;50.210;10.628;2022-09-02T02:30:43;3.72;;;2.08;;
8536;SDS011;4306;50.210;10.628;2022-09-02T02:33:10;2.97;;;1.85;;
8536;SDS011;4306;50.210;10.628;2022-09-02T02:35:37;5.00;;;2.80;;
8536;SDS011;4306;50.210;10.628;2022-09-02T02:38:04;4.13;;;2.38;;
8536;SDS011;4306;50.210;10.628;2022-09-02T02:40:32;5.95;;;3.05;;
8536;SDS011;4306;50.210;10.628;2022-09-02T02:42:59;6.65;;;3.25;;
8536;SDS011;4306;50.210;10.628;2022-09-02T02:45:26;13.10;;;5.55;;
8536;SDS011;4306;50.210;10.628;2022-09-02T02:47:55;7.15;;;4.47;;
8536;SDS011;4306;50.210;10.628;2022-09-02T02:50:23;6.43;;;3.50;;
8536;SDS011;4306;50.210;10.628;2022-09-02T02:52:50;5.03;;;3.20;;
8536;SDS011;4306;50.210;10.628;2022-09-02T02:55:19;4.35;;;2.83;;
8536;SDS011;4306;50.210;10.628;2022-09-02T02:57:46;5.90;;;2.90;;
8536;SDS011;4306;50.210;10.628;2022-09-02T03:00:14;6.63;;;3.28;;
8536;SDS011;4306;50.210;10.628;2022-09-02T03:02:43;4.15;;;2.67;;
8536;SDS011;4306;50.210;10.628;2022-09-02T03:05:12;4.25;;;2.63;;
8536;SDS011;4306;50.210;10.628;2022-09-02T03:07:40;3.15;;;2.00;;
8536;SDS011;4306;50.210;10.628;2022-09-02T03:10:08;3.95;;;2.00;;
8536;SDS011;4306;50.210;10.628;2022-09-02T03:12:36;3.50;;;1.95;;
8536;SDS011;4306;50.210;10.628;2022-09-02T03:15:04;3.50;;;1.98;;
8536;SDS011;4306;50.210;10.628;2022-09-02T03:17:33;3.67;;;2.30;;
8536;SDS011;4306;50.210;10.628;2022-09-02T03:20:00;4.63;;;3.22;;
8536;SDS011;4306;50.210;10.628;2022-09-02T03:22:30;6.75;;;3.47;;
8536;SDS011;4306;50.210;10.628;2022-09-02T03:24:57;6.63;;;4.50;;
8536;SDS011;4306;50.210;10.628;2022-09-02T03:27:24;8.15;;;4.55;;
8536;SDS011;4306;50.210;10.628;2022-09-02T03:29:51;8.68;;;4.68;;
8536;SDS011;4306;50.210;10.628;2022-09-02T03:32:18;8.25;;;5.50;;
8536;SDS011;4306;50.210;10.628;2022-09-02T03:34:45;10.07;;;5.82;;
8536;SDS011;4306;50.210;10.628;2022-09-02T03:37:12;9.25;;;5.18;;
8536;SDS011;4306;50.210;10.628;2022-09-02T03:39:40;12.48;;;7.22;;
8536;SDS011;4306;50.210;10.628;2022-09-02T03:42:07;16.70;;;11.82;;
8536;SDS011;4306;50.210;10.628;2022-09-02T03:44:34;9.55;;;6.22;;
8536;SDS011;4306;50.210;10.628;2022-09-02T03:47:01;5.57;;;3.30;;
8536;SDS011;4306;50.210;10.628;2022-09-02T03:49:28;3.88;;;2.15;;
8536;SDS011;4306;50.210;10.628;2022-09-02T03:51:55;3.30;;;1.90;;
8536;SDS011;4306;50.210;10.628;2022-09-02T03:54:22;2.65;;;1.70;;
8536;SDS011;4306;50.210;10.628;2022-09-02T03:56:50;4.63;;;1.70;;
8536;SDS011;4306;50.210;10.628;2022-09-02T03:59:17;3.42;;;1.50;;
8536;SDS011;4306;50.210;10.628;2022-09-02T04:01:44;3.60;;;1.48;;
8536;SDS011;4306;50.210;10.628;2022-09-02T04:04:11;2.72;;;1.60;;
8536;SDS011;4306;50.210;10.628;2022-09-02T04:06:38;3.38;;;1.70;;
8536;SDS011;4306;50.210;10.628;2022-09-02T04:09:05;2.92;;;1.50;;
8536;SDS011;4306;50.210;10.628;2022-09-02T04:11:32;3.22;;;1.65;;
8536;SDS011;4306;50.210;10.628;2022-09-02T04:14:02;3.13;;;1.60;;
8536;SDS011;4306;50.210;10.628;2022-09-02T04:23:13;3.65;;;1.60;;
8536;SDS011;4306;50.210;10.628;2022-09-02T04:25:40;4.05;;;1.90;;
8536;SDS011;4306;50.210;10.628;2022-09-02T04:28:08;3.08;;;1.70;;
8536;SDS011;4306;50.210;10.628;2022-09-02T04:30:38;6.88;;;2.17;;
8536;SDS011;4306;50.210;10.628;2022-09-02T04:33:05;4.07;;;1.73;;
8536;SDS011;4306;50.210;10.628;2022-09-02T04:35:32;3.47;;;1.83;;
8536;SDS011;4306;50.210;10.628;2022-09-02T04:37:59;3.65;;;1.83;;
8536;SDS011;4306;50.210;10.628;2022-09-02T04:40:27;3.50;;;1.67;;
8536;SDS011;4306;50.210;10.628;2022-09-02T04:42:54;3.10;;;1.88;;
8536;SDS011;4306;50.210;10.628;2022-09-02T04:45:21;2.20;;;1.40;;
8536;SDS011;4306;50.210;10.628;2022-09-02T04:47:49;3.15;;;1.90;;
8536;SDS011;4306;50.210;10.628;2022-09-02T04:50:16;3.45;;;1.98;;
8536;SDS011;4306;50.210;10.628;2022-09-02T04:52:43;7.63;;;2.10;;
8536;SDS011;4306;50.210;10.628;2022-09-02T04:55:10;4.50;;;1.83;;
8536;SDS011;4306;50.210;10.628;2022-09-02T04:57:37;3.15;;;1.52;;
8536;SDS011;4306;50.210;10.628;2022-09-02T05:00:05;3.67;;;2.00;;
8536;SDS011;4306;50.210;10.628;2022-09-02T05:02:33;3.80;;;1.85;;
8536;SDS011;4306;50.210;10.628;2022-09-02T05:05:02;4.97;;;1.80;;
8536;SDS011;4306;50.210;10.628;2022-09-02T05:07:29;3.17;;;1.80;;
8536;SDS011;4306;50.210;10.628;2022-09-02T05:09:57;3.08;;;1.70;;
8536;SDS011;4306;50.210;10.628;2022-09-02T05:12:25;5.38;;;1.42;;
8536;SDS011;4306;50.210;10.628;2022-09-02T05:14:52;3.15;;;1.50;;
8536;SDS011;4306;50.210;10.628;2022-09-02T05:17:19;4.70;;;1.80;;
8536;SDS011;4306;50.210;10.628;2022-09-02T05:19:46;2.78;;;1.75;;
8536;SDS011;4306;50.210;10.628;2022-09-02T05:22:15;3.63;;;1.83;;
8536;SDS011;4306;50.210;10.628;2022-09-02T05:24:43;2.63;;;1.50;;
8536;SDS011;4306;50.210;10.628;2022-09-02T05:27:10;2.63;;;1.48;;
8536;SDS011;4306;50.210;10.628;2022-09-02T05:29:40;3.42;;;1.83;;
8536;SDS011;4306;50.210;10.628;2022-09-02T05:32:07;4.32;;;1.48;;
8536;SDS011;4306;50.210;10.628;2022-09-02T05:34:34;4.28;;;1.60;;
8536;SDS011;4306;50.210;10.628;2022-09-02T05:37:02;2.85;;;1.73;;
8536;SDS011;4306;50.210;10.628;2022-09-02T05:39:30;3.72;;;1.80;;
8536;SDS011;4306;50.210;10.628;2022-09-02T05:41:57;4.18;;;1.85;;
8536;SDS011;4306;50.210;10.628;2022-09-02T05:44:24;3.70;;;1.60;;
8536;SDS011;4306;50.210;10.628;2022-09-02T05:46:53;4.47;;;1.67;;
8536;SDS011;4306;50.210;10.628;2022-09-02T05:49:20;5.07;;;1.95;;
8536;SDS011;4306;50.210;10.628;2022-09-02T05:51:48;3.42;;;1.55;;
8536;SDS011;4306;50.210;10.628;2022-09-02T05:54:18;3.15;;;1.70;;
8536;SDS011;4306;50.210;10.628;2022-09-02T05:56:52;3.10;;;1.50;;
8536;SDS011;4306;50.210;10.628;2022-09-02T05:59:23;3.25;;;1.98;;
8536;SDS011;4306;50.210;10.628;2022-09-02T06:01:52;2.28;;;1.50;;
8536;SDS011;4306;50.210;10.628;2022-09-02T06:04:21;2.95;;;1.65;;
8536;SDS011;4306;50.210;10.628;2022-09-02T06:06:48;2.80;;;1.70;;
8536;SDS011;4306;50.210;10.628;2022-09-02T06:09:17;3.00;;;1.70;;
8536;SDS011;4306;50.210;10.628;2022-09-02T06:11:48;2.38;;;1.40;;
8536;SDS011;4306;50.210;10.628;2022-09-02T06:14:16;4.20;;;1.80;;
8536;SDS011;4306;50.210;10.628;2022-09-02T06:16:45;4.85;;;1.63;;
8536;SDS011;4306;50.210;10.628;2022-09-02T06:19:12;2.88;;;1.45;;
8536;SDS011;4306;50.210;10.628;2022-09-02T06:21:40;3.40;;;1.55;;
8536;SDS011;4306;50.210;10.628;2022-09-02T06:24:07;4.88;;;1.70;;
8536;SDS011;4306;50.210;10.628;2022-09-02T06:26:35;4.20;;;1.83;;
8536;SDS011;4306;50.210;10.628;2022-09-02T06:29:04;2.70;;;1.40;;
8536;SDS011;4306;50.210;10.628;2022-09-02T06:31:32;2.90;;;1.50;;
8536;SDS011;4306;50.210;10.628;2022-09-02T06:33:59;3.92;;;1.75;;
8536;SDS011;4306;50.210;10.628;2022-09-02T06:36:27;3.90;;;1.65;;
8536;SDS011;4306;50.210;10.628;2022-09-02T06:38:56;2.50;;;1.30;;
8536;SDS011;4306;50.210;10.628;2022-09-02T06:41:25;3.35;;;1.65;;
8536;SDS011;4306;50.210;10.628;2022-09-02T06:43:54;2.30;;;1.42;;
8536;SDS011;4306;50.210;10.628;2022-09-02T06:46:23;3.78;;;2.00;;
8536;SDS011;4306;50.210;10.628;2022-09-02T06:48:52;5.43;;;1.60;;
8536;SDS011;4306;50.210;10.628;2022-09-02T06:51:19;3.10;;;1.83;;
8536;SDS011;4306;50.210;10.628;2022-09-02T06:53:48;7.65;;;1.63;;
8536;SDS011;4306;50.210;10.628;2022-09-02T06:56:15;4.20;;;1.77;;
8536;SDS011;4306;50.210;10.628;2022-09-02T06:58:42;3.15;;;1.50;;
8536;SDS011;4306;50.210;10.628;2022-09-02T07:01:09;4.18;;;1.60;;
8536;SDS011;4306;50.210;10.628;2022-09-02T07:03:43;2.97;;;1.48;;
8536;SDS011;4306;50.210;10.628;2022-09-02T07:06:32;2.38;;;1.40;;
8536;SDS011;4306;50.210;10.628;2022-09-02T07:09:02;4.35;;;1.58;;
8536;SDS011;4306;50.210;10.628;2022-09-02T07:11:29;2.90;;;1.58;;
8536;SDS011;4306;50.210;10.628;2022-09-02T07:13:57;5.05;;;1.50;;
8536;SDS011;4306;50.210;10.628;2022-09-02T07:16:26;2.13;;;1.33;;
8536;SDS011;4306;50.210;10.628;2022-09-02T07:18:56;4.90;;;1.35;;
8536;SDS011;4306;50.210;10.628;2022-09-02T07:21:25;2.30;;;1.17;;
8536;SDS011;4306;50.210;10.628;2022-09-02T07:23:53;2.47;;;1.17;;
8536;SDS011;4306;50.210;10.628;2022-09-02T07:26:20;5.03;;;1.50;;
8536;SDS011;4306;50.210;10.628;2022-09-02T07:28:48;3.45;;;1.40;;
8536;SDS011;4306;50.210;10.628;2022-09-02T07:31:15;5.60;;;1.48;;
8536;SDS011;4306;50.210;10.628;2022-09-02T07:33:43;2.42;;;1.33;;
8536;SDS011;4306;50.210;10.628;2022-09-02T07:36:13;2.55;;;1.27;;
8536;SDS011;4306;50.210;10.628;2022-09-02T07:38:41;3.85;;;1.30;;
8536;SDS011;4306;50.210;10.628;2022-09-02T07:41:08;2.80;;;1.30;;
8536;SDS011;4306;50.210;10.628;2022-09-02T07:43:37;5.20;;;1.30;;
8536;SDS011;4306;50.210;10.628;2022-09-02T07:46:05;4.35;;;1.30;;
8536;SDS011;4306;50.210;10.628;2022-09-02T07:48:32;2.72;;;1.40;;
8536;SDS011;4306;50.210;10.628;2022-09-02T07:51:00;2.35;;;1.23;;
8536;SDS011;4306;50.210;10.628;2022-09-02T07:53:29;3.95;;;1.33;;
8536;SDS011;4306;50.210;10.628;2022-09-02T07:55:57;2.67;;;1.30;;
8536;SDS011;4306;50.210;10.628;2022-09-02T07:58:24;2.47;;;1.35;;
8536;SDS011;4306;50.210;10.628;2022-09-02T08:00:52;2.47;;;1.30;;
8536;SDS011;4306;50.210;10.628;2022-09-02T08:03:21;2.65;;;1.20;;
8536;SDS011;4306;50.210;10.628;2022-09-02T08:05:48;3.22;;;1.40;;
8536;SDS011;4306;50.210;10.628;2022-09-02T08:08:16;3.95;;;1.63;;
8536;SDS011;4306;50.210;10.628;2022-09-02T08:10:47;4.50;;;1.27;;
8536;SDS011;4306;50.210;10.628;2022-09-02T08:13:15;5.65;;;1.40;;
8536;SDS011;4306;50.210;10.628;2022-09-02T08:15:43;2.95;;;1.20;;
8536;SDS011;4306;50.210;10.628;2022-09-02T08:18:10;3.35;;;1.33;;
8536;SDS011;4306;50.210;10.628;2022-09-02T08:20:37;1.70;;;1.10;;
8536;SDS011;4306;50.210;10.628;2022-09-02T08:23:05;3.92;;;1.60;;
8536;SDS011;4306;50.210;10.628;2022-09-02T08:25:32;3.30;;;1.58;;
8536;SDS011;4306;50.210;10.628;2022-09-02T08:28:01;2.42;;;0.98;;
8536;SDS011;4306;50.210;10.628;2022-09-02T08:30:28;2.38;;;1.15;;
8536;SDS011;4306;50.210;10.628;2022-09-02T08:32:55;3.92;;;1.30;;
8536;SDS011;4306;50.210;10.628;2022-09-02T08:35:22;4.13;;;1.30;;
8536;SDS011;4306;50.210;10.628;2022-09-02T08:37:49;3.33;;;1.25;;
8536;SDS011;4306;50.210;10.628;2022-09-02T08:40:17;2.97;;;1.35;;
8536;SDS011;4306;50.210;10.628;2022-09-02T08:42:47;4.13;;;1.42;;
8536;SDS011;4306;50.210;10.628;2022-09-02T08:45:20;3.45;;;1.08;;
8536;SDS011;4306;50.210;10.628;2022-09-02T08:47:50;4.10;;;1.10;;
8536;SDS011;4306;50.210;10.628;2022-09-02T08:50:28;2.97;;;1.10;;
8536;SDS011;4306;50.210;10.628;2022-09-02T08:52:59;3.33;;;0.90;;
8536;SDS011;4306;50.210;10.628;2022-09-02T08:55:34;2.05;;;1.30;;
8536;SDS011;4306;50.210;10.628;2022-09-02T08:58:16;2.92;;;1.05;;
8536;SDS011;4306;50.210;10.628;2022-09-02T09:00:48;2.45;;;1.00;;
8536;SDS011;4306;50.210;10.628;2022-09-02T09:03:23;2.45;;;1.10;;
8536;SDS011;4306;50.210;10.628;2022-09-02T09:05:57;3.95;;;1.10;;
8536;SDS011;4306;50.210;10.628;2022-09-02T09:08:32;2.33;;;0.80;;
8536;SDS011;4306;50.210;10.628;2022-09-02T09:11:08;3.42;;;1.20;;
8536;SDS011;4306;50.210;10.628;2022-09-02T09:13:50;3.30;;;1.00;;
8536;SDS011;4306;50.210;10.628;2022-09-02T09:16:40;2.08;;;1.00;;
8536;SDS011;4306;50.210;10.628;2022-09-02T09:19:12;2.40;;;1.20;;
8536;SDS011;4306;50.210;10.628;2022-09-02T09:21:40;3.35;;;1.00;;
8536;SDS011;4306;50.210;10.628;2022-09-02T09:24:13;3.03;;;1.20;;
8536;SDS011;4306;50.210;10.628;2022-09-02T09:26:46;2.00;;;1.13;;
8536;SDS011;4306;50.210;10.628;2022-09-02T09:29:13;1.67;;;1.02;;
8536;SDS011;4306;50.210;10.628;2022-09-02T09:31:42;2.38;;;1.13;;
8536;SDS011;4306;50.210;10.628;2022-09-02T09:34:13;2.63;;;1.00;;
8536;SDS011;4306;50.210;10.628;2022-09-02T09:36:47;3.00;;;1.00;;
8536;SDS011;4306;50.210;10.628;2022-09-02T09:39:21;1.73;;;1.00;;
8536;SDS011;4306;50.210;10.628;2022-09-02T09:41:50;3.85;;;1.45;;
8536;SDS011;4306;50.210;10.628;2022-09-02T09:47:14;3.30;;;1.10;;
8536;SDS011;4306;50.210;10.628;2022-09-02T09:49:43;1.70;;;0.82;;
8536;SDS011;4306;50.210;10.628;2022-09-02T09:52:20;3.90;;;1.10;;
8536;SDS011;4306;50.210;10.628;2022-09-02T09:54:58;7.00;;;1.30;;
8536;SDS011;4306;50.210;10.628;2022-09-02T09:57:42;2.28;;;1.10;;
8536;SDS011;4306;50.210;10.628;2022-09-02T10:00:18;3.55;;;1.20;;
8536;SDS011;4306;50.210;10.628;2022-09-02T10:02:49;5.82;;;1.40;;
8536;SDS011;4306;50.210;10.628;2022-09-02T10:05:21;2.38;;;1.00;;
8536;SDS011;4306;50.210;10.628;2022-09-02T10:07:57;2.92;;;1.08;;
8536;SDS011;4306;50.210;10.628;2022-09-02T10:10:27;3.25;;;1.10;;
8536;SDS011;4306;50.210;10.628;2022-09-02T10:12:56;1.65;;;0.80;;
8536;SDS011;4306;50.210;10.628;2022-09-02T10:15:29;2.65;;;0.90;;
8536;SDS011;4306;50.210;10.628;2022-09-02T10:18:10;1.35;;;0.82;;
8536;SDS011;4306;50.210;10.628;2022-09-02T10:20:44;2.90;;;1.10;;
8536;SDS011;4306;50.210;10.628;2022-09-02T10:23:20;2.42;;;0.90;;
8536;SDS011;4306;50.210;10.628;2022-09-02T10:26:01;4.03;;;0.98;;
8536;SDS011;4306;50.210;10.628;2022-09-02T10:28:40;4.45;;;1.23;;
8536;SDS011;4306;50.210;10.628;2022-09-02T10:31:25;2.17;;;1.10;;
8536;SDS011;4306;50.210;10.628;2022-09-02T10:34:01;2.10;;;1.00;;
8536;SDS011;4306;50.210;10.628;2022-09-02T10:36:36;1.73;;;0.90;;
8536;SDS011;4306;50.210;10.628;2022-09-02T10:39:15;1.02;;;0.90;;
8536;SDS011;4306;50.210;10.628;2022-09-02T10:41:52;4.03;;;1.10;;
8536;SDS011;4306;50.210;10.628;2022-09-02T10:44:27;1.63;;;0.90;;
8536;SDS011;4306;50.210;10.628;2022-09-02T10:46:59;1.88;;;1.13;;
8536;SDS011;4306;50.210;10.628;2022-09-02T10:49:36;2.53;;;0.73;;
8536;SDS011;4306;50.210;10.628;2022-09-02T10:52:22;2.13;;;1.00;;
8536;SDS011;4306;50.210;10.628;2022-09-02T10:55:08;1.40;;;0.90;;
8536;SDS011;4306;50.210;10.628;2022-09-02T11:00:50;1.75;;;0.85;;
8536;SDS011;4306;50.210;10.628;2022-09-02T11:03:20;3.45;;;1.20;;
8536;SDS011;4306;50.210;10.628;2022-09-02T11:05:56;2.65;;;1.15;;
8536;SDS011;4306;50.210;10.628;2022-09-02T11:08:32;1.80;;;1.10;;
8536;SDS011;4306;50.210;10.628;2022-09-02T11:11:04;2.20;;;0.90;;
8536;SDS011;4306;50.210;10.628;2022-09-02T11:13:37;2.55;;;0.88;;
8536;SDS011;4306;50.210;10.628;2022-09-02T11:16:17;2.88;;;1.10;;
8536;SDS011;4306;50.210;10.628;2022-09-02T11:18:50;1.73;;;1.00;;
8536;SDS011;4306;50.210;10.628;2022-09-02T11:21:28;2.60;;;1.02;;
8536;SDS011;4306;50.210;10.628;2022-09-02T11:24:05;1.90;;;0.98;;
8536;SDS011;4306;50.210;10.628;2022-09-02T11:26:40;1.73;;;0.90;;
8536;SDS011;4306;50.210;10.628;2022-09-02T11:29:13;2.85;;;1.10;;
8536;SDS011;4306;50.210;10.628;2022-09-02T11:31:45;1.83;;;1.10;;
8536;SDS011;4306;50.210;10.628;2022-09-02T11:34:18;3.22;;;0.88;;
8536;SDS011;4306;50.210;10.628;2022-09-02T11:37:00;3.92;;;1.98;;
8536;SDS011;4306;50.210;10.628;2022-09-02T11:39:29;1.92;;;1.08;;
8536;SDS011;4306;50.210;10.628;2022-09-02T11:42:04;2.45;;;1.00;;
8536;SDS011;4306;50.210;10.628;2022-09-02T11:47:55;1.15;;;0.82;;
8536;SDS011;4306;50.210;10.628;2022-09-02T11:50:46;1.52;;;0.88;;
8536;SDS011;4306;50.210;10.628;2022-09-02T11:53:23;4.18;;;1.00;;
8536;SDS011;4306;50.210;10.628;2022-09-02T11:55:54;1.45;;;0.95;;
8536;SDS011;4306;50.210;10.628;2022-09-02T11:58:31;1.85;;;0.80;;
8536;SDS011;4306;50.210;10.628;2022-09-02T12:01:04;3.47;;;1.13;;
8536;SDS011;4306;50.210;10.628;2022-09-02T12:03:44;1.88;;;0.88;;
8536;SDS011;4306;50.210;10.628;2022-09-02T12:06:15;5.25;;;1.15;;
8536;SDS011;4306;50.210;10.628;2022-09-02T12:11:40;1.17;;;0.80;;
8536;SDS011;4306;50.210;10.628;2022-09-02T12:27:05;1.73;;;0.90;;
8536;SDS011;4306;50.210;10.628;2022-09-02T12:29:44;6.28;;;1.15;;
8536;SDS011;4306;50.210;10.628;2022-09-02T12:32:11;2.65;;;0.85;;
8536;SDS011;4306;50.210;10.628;2022-09-02T12:34:54;1.48;;;0.85;;
8536;SDS011;4306;50.210;10.628;2022-09-02T12:37:50;2.30;;;0.90;;
8536;SDS011;4306;50.210;10.628;2022-09-02T12:40:29;3.85;;;0.70;;
8536;SDS011;4306;50.210;10.628;2022-09-02T12:43:03;1.63;;;0.80;;
8536;SDS011;4306;50.210;10.628;2022-09-02T12:45:42;2.47;;;0.93;;
8536;SDS011;4306;50.210;10.628;2022-09-02T12:48:11;1.42;;;0.80;;
8536;SDS011;4306;50.210;10.628;2022-09-02T12:50:53;2.00;;;0.70;;
8536;SDS011;4306;50.210;10.628;2022-09-02T12:53:30;2.83;;;1.02;;
8536;SDS011;4306;50.210;10.628;2022-09-02T12:56:00;1.50;;;0.75;;
8536;SDS011;4306;50.210;10.628;2022-09-02T12:58:33;2.72;;;1.00;;
8536;SDS011;4306;50.210;10.628;2022-09-02T13:01:12;1.00;;;0.70;;
8536;SDS011;4306;50.210;10.628;2022-09-02T13:03:46;2.42;;;0.90;;
8536;SDS011;4306;50.210;10.628;2022-09-02T13:06:34;2.50;;;0.90;;
8536;SDS011;4306;50.210;10.628;2022-09-02T13:15:42;1.65;;;1.00;;
8536;SDS011;4306;50.210;10.628;2022-09-02T13:18:39;1.25;;;0.95;;
8536;SDS011;4306;50.210;10.628;2022-09-02T13:24:35;1.77;;;1.00;;
8536;SDS011;4306;50.210;10.628;2022-09-02T13:27:26;1.48;;;0.90;;
8536;SDS011;4306;50.210;10.628;2022-09-02T13:30:14;2.00;;;0.77;;
8536;SDS011;4306;50.210;10.628;2022-09-02T13:32:46;4.60;;;1.15;;
8536;SDS011;4306;50.210;10.628;2022-09-02T13:35:23;2.75;;;1.15;;
8536;SDS011;4306;50.210;10.628;2022-09-02T13:37:52;3.17;;;1.10;;
8536;SDS011;4306;50.210;10.628;2022-09-02T13:40:24;1.85;;;1.00;;
8536;SDS011;4306;50.210;10.628;2022-09-02T13:42:53;1.77;;;1.10;;
8536;SDS011;4306;50.210;10.628;2022-09-02T13:45:21;1.88;;;1.00;;
8536;SDS011;4306;50.210;10.628;2022-09-02T13:47:51;2.42;;;1.20;;
8536;SDS011;4306;50.210;10.628;2022-09-02T13:50:20;3.00;;;1.13;;
8536;SDS011;4306;50.210;10.628;2022-09-02T13:52:50;2.30;;;1.00;;
8536;SDS011;4306;50.210;10.628;2022-09-02T13:55:19;3.92;;;1.10;;
8536;SDS011;4306;50.210;10.628;2022-09-02T13:57:49;3.25;;;1.15;;
8536;SDS011;4306;50.210;10.628;2022-09-02T14:00:26;1.63;;;1.10;;
8536;SDS011;4306;50.210;10.628;2022-09-02T14:02:59;2.63;;;0.98;;
8536;SDS011;4306;50.210;10.628;2022-09-02T14:05:28;2.55;;;1.10;;
8536;SDS011;4306;50.210;10.628;2022-09-02T14:07:57;5.05;;;1.00;;
8536;SDS011;4306;50.210;10.628;2022-09-02T14:10:28;2.28;;;1.10;;
8536;SDS011;4306;50.210;10.628;2022-09-02T14:12:57;3.70;;;1.10;;
8536;SDS011;4306;50.210;10.628;2022-09-02T14:15:26;1.75;;;0.80;;
8536;SDS011;4306;50.210;10.628;2022-09-02T14:18:08;2.00;;;1.02;;
8536;SDS011;4306;50.210;10.628;2022-09-02T14:20:39;1.85;;;0.90;;
8536;SDS011;4306;50.210;10.628;2022-09-02T14:23:17;1.73;;;0.80;;
8536;SDS011;4306;50.210;10.628;2022-09-02T14:25:48;2.50;;;0.90;;
8536;SDS011;4306;50.210;10.628;2022-09-02T14:28:18;3.00;;;1.00;;
8536;SDS011;4306;50.210;10.628;2022-09-02T14:30:53;2.15;;;0.88;;
8536;SDS011;4306;50.210;10.628;2022-09-02T14:33:24;2.00;;;0.95;;
8536;SDS011;4306;50.210;10.628;2022-09-02T14:35:54;1.55;;;0.95;;
8536;SDS011;4306;50.210;10.628;2022-09-02T14:38:22;1.45;;;0.80;;
8536;SDS011;4306;50.210;10.628;2022-09-02T14:40:57;2.47;;;1.00;;
8536;SDS011;4306;50.210;10.628;2022-09-02T14:43:26;4.50;;;1.00;;
8536;SDS011;4306;50.210;10.628;2022-09-02T14:46:03;3.63;;;0.90;;
8536;SDS011;4306;50.210;10.628;2022-09-02T14:48:35;2.67;;;1.02;;
8536;SDS011;4306;50.210;10.628;2022-09-02T14:51:04;1.33;;;0.93;;
8536;SDS011;4306;50.210;10.628;2022-09-02T14:53:32;3.10;;;0.90;;
8536;SDS011;4306;50.210;10.628;2022-09-02T14:56:01;2.15;;;0.90;;
8536;SDS011;4306;50.210;10.628;2022-09-02T14:58:29;2.42;;;1.00;;
8536;SDS011;4306;50.210;10.628;2022-09-02T15:00:57;0.90;;;0.80;;
8536;SDS011;4306;50.210;10.628;2022-09-02T15:03:25;1.60;;;0.93;;
8536;SDS011;4306;50.210;10.628;2022-09-02T15:05:54;1.23;;;0.77;;
8536;SDS011;4306;50.210;10.628;2022-09-02T15:08:22;1.25;;;0.85;;
8536;SDS011;4306;50.210;10.628;2022-09-02T15:10:49;1.75;;;0.80;;
8536;SDS011;4306;50.210;10.628;2022-09-02T15:13:22;1.45;;;0.90;;
8536;SDS011;4306;50.210;10.628;2022-09-02T15:15:54;2.50;;;0.75;;
8536;SDS011;4306;50.210;10.628;2022-09-02T15:18:23;4.53;;;0.88;;
8536;SDS011;4306;50.210;10.628;2022-09-02T15:20:50;2.25;;;0.90;;
8536;SDS011;4306;50.210;10.628;2022-09-02T15:23:19;2.53;;;1.10;;
8536;SDS011;4306;50.210;10.628;2022-09-02T15:25:46;1.50;;;1.02;;
8536;SDS011;4306;50.210;10.628;2022-09-02T15:28:13;3.58;;;0.88;;
8536;SDS011;4306;50.210;10.628;2022-09-02T15:30:40;2.13;;;1.10;;
8536;SDS011;4306;50.210;10.628;2022-09-02T15:33:07;1.90;;;0.80;;
8536;SDS011;4306;50.210;10.628;2022-09-02T15:35:35;1.45;;;0.77;;
8536;SDS011;4306;50.210;10.628;2022-09-02T15:38:02;1.52;;;0.75;;
8536;SDS011;4306;50.210;10.628;2022-09-02T15:40:30;1.40;;;0.70;;
8536;SDS011;4306;50.210;10.628;2022-09-02T15:42:58;1.48;;;0.90;;
8536;SDS011;4306;50.210;10.628;2022-09-02T15:45:25;1.67;;;0.82;;
8536;SDS011;4306;50.210;10.628;2022-09-02T15:47:55;1.80;;;0.95;;
8536;SDS011;4306;50.210;10.628;2022-09-02T15:50:22;2.25;;;0.80;;
8536;SDS011;4306;50.210;10.628;2022-09-02T15:52:50;1.75;;;0.82;;
8536;SDS011;4306;50.210;10.628;2022-09-02T15:55:17;2.80;;;1.08;;
8536;SDS011;4306;50.210;10.628;2022-09-02T15:57:45;2.38;;;0.80;;
8536;SDS011;4306;50.210;10.628;2022-09-02T16:00:12;2.15;;;1.00;;
8536;SDS011;4306;50.210;10.628;2022-09-02T16:02:40;2.53;;;1.00;;